Time;durP1;ratioP1;P1;durP2;ratioP2;P2;SDS_P1;SDS_P2;PMS_P1;PMS_P2;Temp;Humidity;BMP_temperature;BMP_pressure;BME280_temperature;BME280_humidity;BME280_pressure;Samples;Min_cycle;Max_cycle;Signal;HPM_P1;HPM_P2
2022/12/21 00:02:22;;;;;;;49.95;28.27;;;;;;;;;;10293223;28;20072;-65
2022/12/21 00:07:20;;;;;;;50.95;28.73;;;;;;;;;;10317013;28;20048;-65
2022/12/21 00:12:20;;;;;;;59.05;33.53;;;;;;;;;;10314668;28;20063;-66
2022/12/21 00:17:18;;;;;;;102.68;56.08;;;;;;;;;;10315133;28;20481;-65
2022/12/21 00:22:16;;;;;;;56.30;29.05;;;;;;;;;;10315161;28;20156;-64
2022/12/21 00:27:14;;;;;;;56.67;30.50;;;;;;;;;;10311183;28;20513;-65
2022/12/21 00:32:14;;;;;;;56.92;28.38;;;;;;;;;;10309201;28;20076;-65
2022/12/21 00:37:13;;;;;;;55.28;29.23;;;;;;;;;;10305951;28;20075;-65
2022/12/21 00:42:14;;;;;;;52.75;27.58;;;;;;;;;;10295571;28;20087;-65
2022/12/21 00:47:14;;;;;;;56.20;25.33;;;;;;;;;;10313211;28;20083;-65
2022/12/21 00:52:12;;;;;;;60.00;31.73;;;;;;;;;;10295562;28;20052;-65
2022/12/21 00:57:10;;;;;;;52.38;28.88;;;;;;;;;;10297601;28;20048;-64
2022/12/21 01:02:09;;;;;;;68.25;33.95;;;;;;;;;;10303223;28;20083;-65
2022/12/21 01:07:09;;;;;;;64.75;28.08;;;;;;;;;;10323256;28;20320;-65
2022/12/21 01:12:07;;;;;;;46.63;27.25;;;;;;;;;;10303673;28;20067;-65
2022/12/21 01:17:05;;;;;;;49.75;29.52;;;;;;;;;;10321728;28;20087;-65
2022/12/21 01:22:03;;;;;;;48.63;29.10;;;;;;;;;;10319323;28;20485;-65
2022/12/21 01:27:03;;;;;;;52.13;28.85;;;;;;;;;;10302559;28;20041;-65
2022/12/21 01:32:02;;;;;;;56.25;29.40;;;;;;;;;;10318464;28;20048;-65
2022/12/21 01:37:00;;;;;;;51.85;29.52;;;;;;;;;;10318045;28;20040;-65
2022/12/21 01:41:58;;;;;;;45.85;25.33;;;;;;;;;;10301955;28;20087;-65
2022/12/21 01:46:58;;;;;;;51.40;26.33;;;;;;;;;;10312505;28;20076;-65
2022/12/21 01:51:59;;;;;;;44.53;25.42;;;;;;;;;;10300820;28;20055;-65
2022/12/21 01:56:59;;;;;;;47.90;25.42;;;;;;;;;;10286833;28;20079;-65
2022/12/21 02:02:00;;;;;;;49.90;26.67;;;;;;;;;;10299473;28;20071;-65
2022/12/21 02:06:59;;;;;;;62.30;30.50;;;;;;;;;;10316289;28;20067;-64
2022/12/21 02:11:59;;;;;;;62.40;31.63;;;;;;;;;;10316310;28;20454;-65
2022/12/21 02:17:02;;;;;;;44.20;26.08;;;;;;;;;;10314122;28;20060;-65
2022/12/21 02:22:03;;;;;;;44.35;23.80;;;;;;;;;;10318818;28;20079;-65
2022/12/21 02:27:14;;;;;;;68.05;27.80;;;;;;;;;;10319483;28;20045;-64
2022/12/21 02:32:16;;;;;;;44.90;28.13;;;;;;;;;;10319918;28;20072;-64
2022/12/21 02:37:17;;;;;;;84.80;41.80;;;;;;;;;;10318044;28;20056;-65
2022/12/21 02:47:35;;;;;;;48.17;26.67;;;;;;;;;;10297261;28;20049;-64
2022/12/21 02:52:36;;;;;;;52.25;26.15;;;;;;;;;;10318776;28;20520;-64
2022/12/21 02:57:36;;;;;;;56.85;33.72;;;;;;;;;;10299648;28;20056;-65
2022/12/21 03:02:49;;;;;;;44.60;23.10;;;;;;;;;;10299679;28;20048;-64
2022/12/21 03:08:15;;;;;;;41.65;24.35;;;;;;;;;;10300163;28;20049;-65
2022/12/21 03:13:18;;;;;;;45.40;24.58;;;;;;;;;;10317234;28;20072;-65
2022/12/21 03:18:21;;;;;;;47.17;26.90;;;;;;;;;;10298845;28;20045;-64
2022/12/21 03:23:24;;;;;;;42.78;25.77;;;;;;;;;;10316585;28;20079;-63
2022/12/21 03:28:25;;;;;;;60.97;34.72;;;;;;;;;;10314966;28;20072;-65
2022/12/21 03:33:28;;;;;;;62.50;34.10;;;;;;;;;;10316778;28;20110;-63
2022/12/21 03:38:31;;;;;;;59.55;28.98;;;;;;;;;;10315644;28;20091;-64
2022/12/21 03:43:31;;;;;;;43.15;25.85;;;;;;;;;;10315447;28;20076;-64
2022/12/21 03:48:35;;;;;;;47.33;26.15;;;;;;;;;;10315987;28;20075;-64
2022/12/21 03:53:36;;;;;;;55.33;29.52;;;;;;;;;;10315542;28;20048;-64
2022/12/21 03:58:35;;;;;;;53.63;25.67;;;;;;;;;;10315958;28;20505;-64
2022/12/21 04:03:37;;;;;;;109.90;53.63;;;;;;;;;;10315631;28;20091;-64
2022/12/21 04:08:36;;;;;;;79.10;38.38;;;;;;;;;;10315219;28;20095;-64
2022/12/21 04:13:34;;;;;;;91.93;38.90;;;;;;;;;;10312987;28;20068;-64
2022/12/21 04:29:05;;;;;;;45.83;26.42;;;;;;;;;;10312750;28;19920;-65
2022/12/21 04:34:03;;;;;;;70.82;39.65;;;;;;;;;;10299980;28;20052;-64
2022/12/21 04:39:01;;;;;;;50.60;24.90;;;;;;;;;;10323809;28;20048;-64
2022/12/21 04:44:00;;;;;;;42.05;23.67;;;;;;;;;;10322947;28;20091;-65
2022/12/21 04:48:59;;;;;;;40.83;22.65;;;;;;;;;;10323078;28;20053;-65
2022/12/21 04:53:58;;;;;;;36.70;21.63;;;;;;;;;;10320289;28;20458;-65
2022/12/21 04:58:56;;;;;;;40.28;22.05;;;;;;;;;;10322993;28;20049;-65
2022/12/21 05:03:57;;;;;;;43.00;23.45;;;;;;;;;;10312916;28;20079;-65
2022/12/21 05:08:57;;;;;;;38.95;21.95;;;;;;;;;;10322755;28;20040;-65
2022/12/21 05:13:55;;;;;;;35.78;21.55;;;;;;;;;;10319783;28;20070;-66
2022/12/21 05:18:53;;;;;;;34.80;19.40;;;;;;;;;;10318640;28;20071;-65
2022/12/21 05:23:51;;;;;;;40.70;18.77;;;;;;;;;;10296630;28;20068;-66
2022/12/21 05:28:51;;;;;;;36.85;18.95;;;;;;;;;;10289294;28;20088;-64
2022/12/21 05:33:49;;;;;;;62.13;30.77;;;;;;;;;;10316719;28;20067;-65
2022/12/21 05:38:48;;;;;;;50.95;27.25;;;;;;;;;;10314280;28;20512;-66
2022/12/21 05:43:46;;;;;;;50.13;25.80;;;;;;;;;;10317950;28;20671;-64
2022/12/21 05:48:46;;;;;;;50.60;26.90;;;;;;;;;;10319055;28;20458;-64
2022/12/21 05:53:45;;;;;;;56.97;31.60;;;;;;;;;;10315243;28;20072;-65
2022/12/21 05:58:43;;;;;;;58.53;30.63;;;;;;;;;;10319436;28;20076;-66
2022/12/21 06:03:46;;;;;;;51.90;27.13;;;;;;;;;;10319334;28;20072;-66
2022/12/21 06:08:45;;;;;;;40.28;22.40;;;;;;;;;;10318413;28;20067;-65
2022/12/21 06:13:43;;;;;;;43.20;23.88;;;;;;;;;;10300386;28;20441;-64
2022/12/21 06:18:41;;;;;;;56.63;28.05;;;;;;;;;;10297638;28;20146;-64
2022/12/21 06:23:42;;;;;;;44.67;23.55;;;;;;;;;;10298577;28;20074;-65
2022/12/21 06:28:40;;;;;;;52.60;28.52;;;;;;;;;;10319295;28;20494;-64
2022/12/21 06:33:38;;;;;;;64.20;39.28;;;;;;;;;;10318860;28;20462;-65
2022/12/21 06:38:37;;;;;;;96.60;39.47;;;;;;;;;;10318563;28;20081;-65
2022/12/21 06:43:37;;;;;;;72.00;29.60;;;;;;;;;;10317391;28;20075;-65
2022/12/21 06:48:36;;;;;;;54.15;26.92;;;;;;;;;;10318555;28;20055;-64
2022/12/21 06:53:36;;;;;;;61.38;33.97;;;;;;;;;;10318028;28;20446;-65
2022/12/21 06:58:35;;;;;;;49.10;29.63;;;;;;;;;;10317439;28;20072;-65
2022/12/21 07:03:35;;;;;;;67.13;35.03;;;;;;;;;;10315009;28;20076;-65
2022/12/21 07:08:41;;;;;;;63.08;33.08;;;;;;;;;;10316713;28;20059;-65
2022/12/21 07:13:40;;;;;;;49.45;26.23;;;;;;;;;;10317223;28;20068;-65
2022/12/21 07:18:40;;;;;;;51.08;28.95;;;;;;;;;;10317454;28;20075;-65
2022/12/21 07:23:39;;;;;;;52.90;30.15;;;;;;;;;;10315487;28;20076;-65
2022/12/21 07:28:38;;;;;;;62.78;30.27;;;;;;;;;;10317176;28;20617;-65
2022/12/21 07:33:36;;;;;;;64.38;34.33;;;;;;;;;;10316416;28;20412;-65
2022/12/21 07:38:37;;;;;;;69.90;41.85;;;;;;;;;;10316524;28;20064;-65
2022/12/21 07:43:35;;;;;;;64.38;37.25;;;;;;;;;;10315241;28;20111;-65
2022/12/21 07:48:52;;;;;;;92.05;43.00;;;;;;;;;;10316414;28;20056;-65
2022/12/21 07:53:51;;;;;;;63.47;38.53;;;;;;;;;;10314242;28;20486;-65
2022/12/21 07:58:49;;;;;;;61.33;37.03;;;;;;;;;;10313141;28;20083;-66
2022/12/21 08:03:48;;;;;;;57.78;35.83;;;;;;;;;;10311730;28;20099;-65
2022/12/21 08:08:46;;;;;;;83.25;47.33;;;;;;;;;;10311592;28;20595;-65
2022/12/21 08:13:46;;;;;;;69.53;42.55;;;;;;;;;;10312791;28;20103;-66
2022/12/21 08:18:45;;;;;;;89.07;49.85;;;;;;;;;;10310988;28;20068;-65
2022/12/21 08:23:43;;;;;;;64.88;36.95;;;;;;;;;;10311592;28;20068;-64
2022/12/21 08:28:43;;;;;;;53.72;31.05;;;;;;;;;;10312055;28;20068;-64
2022/12/21 08:33:44;;;;;;;52.90;31.10;;;;;;;;;;10313954;28;20075;-65
2022/12/21 08:38:44;;;;;;;51.10;29.25;;;;;;;;;;10314851;28;20060;-64
2022/12/21 08:44:03;;;;;;;51.13;28.98;;;;;;;;;;10312641;28;20089;-65
2022/12/21 08:49:03;;;;;;;54.90;34.28;;;;;;;;;;10295211;28;20422;-64
2022/12/21 08:54:01;;;;;;;49.25;26.90;;;;;;;;;;10313903;28;20310;-66
2022/12/21 08:59:00;;;;;;;58.58;36.55;;;;;;;;;;10311149;28;20092;-65
2022/12/21 09:03:59;;;;;;;47.35;29.42;;;;;;;;;;10301848;28;20076;-66
2022/12/21 09:08:58;;;;;;;51.10;28.80;;;;;;;;;;10312201;28;20072;-65
2022/12/21 09:13:56;;;;;;;64.25;34.05;;;;;;;;;;10309002;28;20064;-65
2022/12/21 09:18:55;;;;;;;55.50;32.08;;;;;;;;;;10313633;28;20070;-66
2022/12/21 09:23:53;;;;;;;56.35;33.22;;;;;;;;;;10319886;28;20075;-65
2022/12/21 09:28:54;;;;;;;74.85;41.72;;;;;;;;;;10316710;28;20505;-65
2022/12/21 09:33:53;;;;;;;60.70;37.47;;;;;;;;;;10317264;28;20072;-65
2022/12/21 09:38:52;;;;;;;52.28;31.65;;;;;;;;;;10300316;28;20041;-66
2022/12/21 09:43:57;;;;;;;50.35;32.00;;;;;;;;;;10318366;28;20068;-65
2022/12/21 09:48:58;;;;;;;53.40;32.97;;;;;;;;;;10316179;28;20083;-67
2022/12/21 09:54:02;;;;;;;53.90;30.17;;;;;;;;;;10317645;28;20463;-65
2022/12/21 09:59:04;;;;;;;57.55;32.58;;;;;;;;;;10311444;28;20082;-66
2022/12/21 10:04:17;;;;;;;55.97;32.75;;;;;;;;;;10316742;28;20064;-66
2022/12/21 10:09:50;;;;;;;56.60;33.85;;;;;;;;;;10319258;28;20079;-66
2022/12/21 10:14:54;;;;;;;82.22;43.13;;;;;;;;;;10311933;28;20079;-67
2022/12/21 10:20:01;;;;;;;67.22;39.28;;;;;;;;;;10300670;28;20494;-66
2022/12/21 10:25:00;;;;;;;54.50;31.58;;;;;;;;;;10317640;28;20068;-66
2022/12/21 10:29:59;;;;;;;62.15;35.05;;;;;;;;;;10317691;28;20060;-66
2022/12/21 10:35:09;;;;;;;53.45;34.30;;;;;;;;;;10306945;28;20515;-67
2022/12/21 10:40:07;;;;;;;46.35;28.58;;;;;;;;;;10300607;28;20087;-66
2022/12/21 10:45:06;;;;;;;47.97;29.23;;;;;;;;;;10299024;28;20068;-67
2022/12/21 10:50:12;;;;;;;63.67;39.40;;;;;;;;;;10317145;28;20496;-66
2022/12/21 10:55:25;;;;;;;68.53;39.45;;;;;;;;;;10316663;28;20056;-68
2022/12/21 11:00:25;;;;;;;58.70;34.83;;;;;;;;;;10313500;28;20060;-67
2022/12/21 11:05:28;;;;;;;41.63;26.73;;;;;;;;;;10314164;28;20083;-66
2022/12/21 11:10:28;;;;;;;57.20;35.47;;;;;;;;;;10295185;28;20063;-67
2022/12/21 11:16:10;;;;;;;43.92;27.83;;;;;;;;;;10316108;28;20068;-67
2022/12/21 11:21:20;;;;;;;75.38;44.20;;;;;;;;;;10298183;28;20088;-66
2022/12/21 11:26:25;;;;;;;48.20;28.73;;;;;;;;;;10315543;28;20087;-66
2022/12/21 11:31:27;;;;;;;56.38;32.45;;;;;;;;;;10313757;28;20053;-67
2022/12/21 11:36:26;;;;;;;48.65;32.38;;;;;;;;;;10314675;28;20111;-66
2022/12/21 11:41:26;;;;;;;50.97;30.55;;;;;;;;;;10315689;28;20079;-67
2022/12/21 11:46:34;;;;;;;63.80;35.70;;;;;;;;;;10314515;28;20087;-67
2022/12/21 11:51:52;;;;;;;51.78;32.10;;;;;;;;;;10315607;28;20032;-66
2022/12/21 11:56:51;;;;;;;47.97;30.33;;;;;;;;;;10315737;28;20528;-67
2022/12/21 12:01:56;;;;;;;53.53;30.88;;;;;;;;;;10314520;28;20120;-65
2022/12/21 12:06:54;;;;;;;;;;;;;;;;;;10317607;28;20083;-66
2022/12/21 12:12:01;;;;;;;51.05;31.27;;;;;;;;;;10313495;28;19932;-65
2022/12/21 12:17:04;;;;;;;57.85;35.28;;;;;;;;;;10303807;28;20658;-66
2022/12/21 12:22:16;;;;;;;52.40;32.78;;;;;;;;;;10308903;28;20037;-64
2022/12/21 12:27:22;;;;;;;51.92;27.92;;;;;;;;;;10296192;28;20083;-66
2022/12/21 12:32:29;;;;;;;79.55;43.25;;;;;;;;;;10314756;28;20040;-64
2022/12/21 12:37:33;;;;;;;61.20;38.25;;;;;;;;;;10311783;28;20087;-64
2022/12/21 12:42:35;;;;;;;71.40;35.83;;;;;;;;;;10299397;28;20087;-64
2022/12/21 12:47:36;;;;;;;60.33;35.90;;;;;;;;;;10313620;28;20086;-64
2022/12/21 12:52:44;;;;;;;72.68;42.00;;;;;;;;;;10310210;28;20060;-63
2022/12/21 12:57:48;;;;;;;65.07;42.70;;;;;;;;;;10318885;28;20060;-64
2022/12/21 13:02:53;;;;;;;43.63;27.60;;;;;;;;;;10323184;28;20079;-65
2022/12/21 13:07:54;;;;;;;58.28;35.50;;;;;;;;;;10320981;28;20493;-65
2022/12/21 13:12:58;;;;;;;65.90;40.50;;;;;;;;;;10304128;28;20399;-65
2022/12/21 13:18:01;;;;;;;59.72;36.08;;;;;;;;;;10320880;28;20445;-65
2022/12/21 13:23:03;;;;;;;60.88;39.45;;;;;;;;;;10320703;28;20536;-65
2022/12/21 13:28:04;;;;;;;48.80;28.55;;;;;;;;;;10308743;28;20075;-63
2022/12/21 13:33:03;;;;;;;60.88;36.75;;;;;;;;;;10318095;28;20068;-64
2022/12/21 13:38:05;;;;;;;53.17;31.17;;;;;;;;;;10319468;28;20067;-64
2022/12/21 13:43:10;;;;;;;89.60;51.20;;;;;;;;;;10303037;28;20080;-64
2022/12/21 13:48:11;;;;;;;56.47;34.90;;;;;;;;;;10321420;28;20048;-65
2022/12/21 13:53:14;;;;;;;106.38;74.65;;;;;;;;;;10320685;28;20067;-64
2022/12/21 13:58:20;;;;;;;52.75;30.48;;;;;;;;;;10320793;28;20068;-63
2022/12/21 14:03:23;;;;;;;68.63;42.67;;;;;;;;;;10320136;28;20072;-64
2022/12/21 14:08:34;;;;;;;49.53;29.92;;;;;;;;;;10317441;28;20065;-65
2022/12/21 14:13:51;;;;;;;93.47;57.42;;;;;;;;;;10319515;28;20107;-64
2022/12/21 14:18:54;;;;;;;71.32;42.60;;;;;;;;;;10320045;28;20037;-65
2022/12/21 14:23:59;;;;;;;72.93;42.78;;;;;;;;;;10318761;28;20454;-64
2022/12/21 14:29:02;;;;;;;70.13;42.10;;;;;;;;;;10319669;28;20083;-64
2022/12/21 14:34:08;;;;;;;72.63;43.03;;;;;;;;;;10319098;28;20076;-64
2022/12/21 14:39:36;;;;;;;57.00;35.70;;;;;;;;;;10318611;28;20080;-65
2022/12/21 14:44:34;;;;;;;52.75;32.92;;;;;;;;;;10318817;28;20075;-64
2022/12/21 14:49:35;;;;;;;53.55;33.33;;;;;;;;;;10319116;28;20406;-64
2022/12/21 14:54:36;;;;;;;74.93;45.92;;;;;;;;;;10316385;28;20075;-64
2022/12/21 14:59:38;;;;;;;59.92;35.95;;;;;;;;;;10318091;28;20421;-65
2022/12/21 15:04:48;;;;;;;71.10;44.70;;;;;;;;;;10317063;28;20080;-65
2022/12/21 15:09:52;;;;;;;84.95;56.25;;;;;;;;;;10318166;28;20055;-65
2022/12/21 15:15:30;;;;;;;63.75;40.88;;;;;;;;;;10317719;28;20477;-64
2022/12/21 15:20:42;;;;;;;62.17;38.85;;;;;;;;;;10317380;28;20474;-64
2022/12/21 15:25:41;;;;;;;78.03;50.45;;;;;;;;;;10317396;28;20506;-65
2022/12/21 15:30:41;;;;;;;68.15;45.05;;;;;;;;;;10317434;28;20071;-64
2022/12/21 15:35:41;;;;;;;101.78;64.45;;;;;;;;;;10314480;28;20072;-64
2022/12/21 15:40:43;;;;;;;108.32;67.18;;;;;;;;;;10315960;28;20048;-64
2022/12/21 15:45:45;;;;;;;246.98;146.32;;;;;;;;;;10316651;28;20556;-65
2022/12/21 15:50:44;;;;;;;83.72;49.75;;;;;;;;;;10297462;28;20049;-65
2022/12/21 15:55:44;;;;;;;57.60;37.65;;;;;;;;;;10298366;28;20045;-65
2022/12/21 16:00:44;;;;;;;116.05;68.00;;;;;;;;;;10316747;28;20036;-65
2022/12/21 16:05:43;;;;;;;62.78;35.88;;;;;;;;;;10316003;28;20562;-65
2022/12/21 16:10:47;;;;;;;54.08;31.88;;;;;;;;;;10316155;28;20044;-65
2022/12/21 16:15:47;;;;;;;75.22;44.83;;;;;;;;;;10314059;28;20048;-66
2022/12/21 16:20:51;;;;;;;83.28;50.63;;;;;;;;;;10312619;28;20056;-66
2022/12/21 16:25:50;;;;;;;78.77;42.90;;;;;;;;;;10315888;28;20068;-65
2022/12/21 16:30:58;;;;;;;113.15;61.50;;;;;;;;;;10314799;28;20048;-64
2022/12/21 16:35:59;;;;;;;71.72;51.25;;;;;;;;;;10315517;28;20064;-65
2022/12/21 16:40:58;;;;;;;73.30;48.90;;;;;;;;;;10315260;28;20072;-65
2022/12/21 16:45:59;;;;;;;114.80;63.22;;;;;;;;;;10315662;28;20072;-66
2022/12/21 16:50:58;;;;;;;86.70;51.28;;;;;;;;;;10315699;28;20084;-65
2022/12/21 16:56:11;;;;;;;98.40;57.80;;;;;;;;;;10295584;28;20107;-65
2022/12/21 17:01:13;;;;;;;101.55;61.00;;;;;;;;;;10312649;28;20418;-65
2022/12/21 17:06:11;;;;;;;80.35;42.20;;;;;;;;;;10314736;28;20091;-65
2022/12/21 17:11:15;;;;;;;64.72;32.92;;;;;;;;;;10314152;28;20514;-66
2022/12/21 17:16:20;;;;;;;96.03;53.42;;;;;;;;;;10315195;28;20044;-65
2022/12/21 17:21:18;;;;;;;;;;;;;;;;;;10315359;28;20060;-66
2022/12/21 17:26:37;;;;;;;102.55;54.75;;;;;;;;;;10313807;28;20368;-66
2022/12/21 17:31:37;;;;;;;101.50;49.60;;;;;;;;;;10314612;28;20679;-66
2022/12/21 17:36:36;;;;;;;80.65;44.08;;;;;;;;;;10314449;28;20072;-65
2022/12/21 17:41:44;;;;;;;128.55;68.05;;;;;;;;;;10318049;28;20047;-66
2022/12/21 17:46:44;;;;;;;76.47;45.10;;;;;;;;;;10318785;28;20111;-65
2022/12/21 17:51:42;;;;;;;108.25;59.10;;;;;;;;;;10300033;28;20425;-64
2022/12/21 17:56:41;;;;;;;104.75;61.40;;;;;;;;;;10301414;28;20052;-64
2022/12/21 18:01:40;;;;;;;96.97;53.70;;;;;;;;;;10320175;28;20051;-65
2022/12/21 18:06:41;;;;;;;91.97;49.03;;;;;;;;;;10320676;28;20083;-65
2022/12/21 18:11:40;;;;;;;118.50;46.30;;;;;;;;;;10317351;28;20095;-65
2022/12/21 18:16:38;;;;;;;129.38;43.95;;;;;;;;;;10328786;28;20064;-66
2022/12/21 18:21:37;;;;;;;159.35;66.38;;;;;;;;;;10317788;28;20083;-66
2022/12/21 18:26:36;;;;;;;144.32;65.32;;;;;;;;;;10321381;28;20753;-65
2022/12/21 18:31:35;;;;;;;128.68;61.67;;;;;;;;;;10294509;28;20079;-65
2022/12/21 18:36:34;;;;;;;97.03;51.00;;;;;;;;;;10314504;28;20088;-64
2022/12/21 18:41:32;;;;;;;145.15;57.25;;;;;;;;;;10315893;28;20102;-66
2022/12/21 18:46:33;;;;;;;181.15;52.25;;;;;;;;;;10315438;28;20501;-61
2022/12/21 18:51:33;;;;;;;147.40;54.15;;;;;;;;;;10273981;28;20092;-61
2022/12/21 18:56:32;;;;;;;161.80;52.38;;;;;;;;;;10276515;28;20076;-62
2022/12/21 19:01:33;;;;;;;233.40;60.70;;;;;;;;;;10274854;28;20073;-62
2022/12/21 19:06:32;;;;;;;124.95;56.15;;;;;;;;;;10274540;28;20072;-63
2022/12/21 19:11:31;;;;;;;149.43;56.80;;;;;;;;;;10272446;28;20506;-61
2022/12/21 19:16:30;;;;;;;117.35;51.13;;;;;;;;;;10273890;28;20079;-63
2022/12/21 19:21:31;;;;;;;299.38;138.27;;;;;;;;;;10274358;28;20076;-63
2022/12/21 19:26:33;;;;;;;117.38;58.70;;;;;;;;;;10273413;28;20489;-61
2022/12/21 19:31:31;;;;;;;119.00;41.03;;;;;;;;;;10274399;28;20056;-62
2022/12/21 19:36:31;;;;;;;191.73;67.43;;;;;;;;;;10251370;28;20076;-63
2022/12/21 19:41:30;;;;;;;200.65;77.35;;;;;;;;;;10269232;28;20095;-61
2022/12/21 19:46:29;;;;;;;149.63;56.08;;;;;;;;;;10273582;28;20072;-61
2022/12/21 19:51:28;;;;;;;157.98;51.47;;;;;;;;;;10307939;28;20084;-61
2022/12/21 19:56:28;;;;;;;232.20;65.80;;;;;;;;;;10313513;28;20064;-59
2022/12/21 20:01:29;;;;;;;149.20;56.65;;;;;;;;;;10316553;28;20080;-61
2022/12/21 20:06:28;;;;;;;132.70;54.80;;;;;;;;;;10305672;28;20080;-62
2022/12/21 20:11:26;;;;;;;231.90;58.22;;;;;;;;;;10329256;28;20429;-63
2022/12/21 20:16:27;;;;;;;176.25;49.45;;;;;;;;;;10321838;28;20108;-63
2022/12/21 20:21:26;;;;;;;238.02;63.30;;;;;;;;;;10315251;28;20084;-62
2022/12/21 20:26:27;;;;;;;157.55;58.22;;;;;;;;;;10310428;28;20068;-60
2022/12/21 20:31:27;;;;;;;282.33;88.43;;;;;;;;;;10293742;28;20497;-62
2022/12/21 20:36:32;;;;;;;300.92;83.68;;;;;;;;;;10310374;28;20083;-63
2022/12/21 20:46:44;;;;;;;279.58;82.90;;;;;;;;;;10304053;28;20505;-62
2022/12/21 20:51:43;;;;;;;309.90;117.97;;;;;;;;;;10307932;28;20071;-62
2022/12/21 20:56:41;;;;;;;240.90;81.90;;;;;;;;;;10310934;28;20509;-62
2022/12/21 21:01:56;;;;;;;187.57;67.68;;;;;;;;;;10302930;28;20462;-62
2022/12/21 21:06:57;;;;;;;217.77;82.10;;;;;;;;;;10299953;28;20072;-63
2022/12/21 21:11:55;;;;;;;159.65;60.17;;;;;;;;;;10298578;28;20477;-61
2022/12/21 21:16:54;;;;;;;295.67;70.60;;;;;;;;;;10304635;28;20080;-62
2022/12/21 21:27:11;;;;;;;134.60;53.60;;;;;;;;;;10314176;28;20496;-61
2022/12/21 21:32:11;;;;;;;143.45;32.13;;;;;;;;;;10311952;28;20426;-62
2022/12/21 21:37:09;;;;;;;239.07;87.78;;;;;;;;;;10313667;28;20130;-61
2022/12/21 21:42:14;;;;;;;82.65;36.83;;;;;;;;;;10308521;28;20455;-62
2022/12/21 21:47:33;;;;;;;204.80;52.58;;;;;;;;;;10295922;28;20087;-62
2022/12/21 21:52:32;;;;;;;117.53;41.08;;;;;;;;;;10317069;28;20036;-63
2022/12/21 21:57:33;;;;;;;126.22;38.92;;;;;;;;;;10318136;28;20037;-62
2022/12/21 22:02:33;;;;;;;159.18;49.58;;;;;;;;;;10309709;28;20071;-62
2022/12/21 22:07:32;;;;;;;101.75;40.20;;;;;;;;;;10310689;28;20076;-61
2022/12/21 22:12:31;;;;;;;186.10;70.13;;;;;;;;;;10316807;28;20048;-63
2022/12/21 22:17:29;;;;;;;118.47;31.48;;;;;;;;;;10318829;28;20071;-63
2022/12/21 22:33:02;;;;;;;121.35;42.80;;;;;;;;;;10318320;28;20506;-64
2022/12/21 22:43:18;;;;;;;56.03;27.40;;;;;;;;;;10315914;28;20519;-61
2022/12/21 22:48:16;;;;;;;62.00;29.52;;;;;;;;;;10319090;28;20534;-62
2022/12/21 22:53:22;;;;;;;194.27;61.77;;;;;;;;;;10300054;28;20075;-63
2022/12/21 22:58:25;;;;;;;52.92;27.65;;;;;;;;;;10317471;28;20052;-63
2022/12/21 23:03:24;;;;;;;153.20;51.40;;;;;;;;;;10318173;28;20620;-63
2022/12/21 23:08:22;;;;;;;70.70;32.47;;;;;;;;;;10317176;28;20496;-62
2022/12/21 23:18:37;;;;;;;99.95;37.45;;;;;;;;;;10313490;28;20083;-63
2022/12/21 23:28:53;;;;;;;131.63;30.48;;;;;;;;;;10316817;28;20072;-63
2022/12/21 23:44:30;;;;;;;91.95;28.10;;;;;;;;;;10316152;28;20051;-62
